KGIF

Winter Haven's Gilbert Airport

Winter Haven, Florida, USA
METAR KGIF 241200Z AUTO 00000KT 4SM BR FEW015 FEW085 18/18 A3024 RMK AO2 T01830178
Observed Flight Rules
Feb-24 @ 12:00 UTC (23 minutes ago) Marginal Visual Flight Rules
Wind Visibility Clouds Conditions
Calm 4 miles
  • Few at 1,500' AGL
  • Few at 8,500' AGL
  • Mist
Temperatures Readings
Current 18°C / 64°F
Dewpoint 18°C / 64°F
Humidity 100%
Altimeter 30.24" Hg
Pressure 1024 hPa
Elevation 43
METAR KGIF 241200Z AUTO 00000KT 4SM BR FEW015 FEW085 18/18 A3024 RMK AO2 T01830178
Observed Flight Rules
Feb-24 @ 12:00 UTC
(23 minutes ago)
MVFR
Wind Visibility
Calm 4 miles
Clouds
  • Few at 1,500' AGL
  • Few at 8,500' AGL
Conditions
  • Mist
Temperature Dewpoint
18°C / 64°F 18°C / 64°F
Humidity Altimeter Pressure
100% 30.24" Hg 1024 hPa